Kota Waris — S6RJ — position and weather

sailwx.info

Track history (hours):
 
Tides and Currents Weather Stations Pressure Air Temp Water Temp Dewpoint Dewpoint Depression Visibility Wind Speed Wind Dir Waves Ship Positions

Kota Waris

Last reported at 2014-Sep-25 20:25 UTC. Time now 2014-Sep-30 20:09 UTC.
Position N 01°16' E 103°23'.

Length 185 m; draft 8.1 m.

Type: Ship (hazmat cat A). MMSI: 564482000.

Date/timePositionNaut miles runAvg speedWind from/ knotsBaromVisibWave heightAir tempDewpointWater temp
2014-Sep-25 20:25N 01°16' E 103°23'1415.7
2014-Sep-25 19:33N 01°12' E 103°36'1010.4
2014-Sep-25 18:34N 01°17' E 103°45'1 1.0
2014-Sep-25 17:34N 01°17' E 103°46'0 0.0
2014-Sep-25 16:28N 01°17' E 103°46'0 0.0
2014-Sep-25 15:31N 01°17' E 103°46'0 0.0
2014-Sep-25 14:32N 01°17' E 103°46'0 0.0
2014-Sep-25 13:32N 01°17' E 103°46'0 0.0
2014-Sep-25 12:31N 01°17' E 103°46'0 0.0
2014-Sep-25 11:32N 01°17' E 103°46'0 0.0
2014-Sep-25 10:31N 01°17' E 103°46'0 0.0
2014-Sep-25 09:31N 01°17' E 103°46'0 0.0
2014-Sep-25 08:32N 01°17' E 103°46'0 0.0
2014-Sep-25 07:32N 01°17' E 103°46'0 0.0
2014-Sep-25 06:29N 01°17' E 103°46'0 0.0
2014-Sep-25 05:31N 01°17' E 103°46'0 0.0
2014-Sep-25 04:31N 01°17' E 103°46'0 0.1
2014-Sep-25 03:32N 01°17' E 103°46'0 0.1
2014-Sep-25 02:33N 01°17' E 103°46'0 0.0
2014-Sep-25 01:31N 01°17' E 103°46'0 0.0
2014-Sep-25 00:32N 01°17' E 103°46'0 0.0
2014-Sep-24 23:31N 01°17' E 103°46'0 0.1
2014-Sep-24 22:32N 01°17' E 103°46'0 0.1
2014-Sep-24 21:31N 01°17' E 103°46'0 0.0
2014-Sep-24 20:31N 01°17' E 103°46'0 0.0
2014-Sep-24 19:31N 01°17' E 103°46'0 0.0
2014-Sep-24 18:32N 01°17' E 103°46'0 0.0
2014-Sep-24 17:32N 01°17' E 103°46'0 0.0
2014-Sep-24 16:32N 01°17' E 103°46'0 0.0
2014-Sep-24 15:31N 01°17' E 103°46'0 0.0
2014-Sep-24 14:32N 01°17' E 103°46'0 0.0
2014-Sep-24 13:32N 01°17' E 103°46'0 0.0
2014-Sep-24 12:31N 01°17' E 103°46'0 0.0
2014-Sep-24 11:33N 01°17' E 103°46'2 1.5
2014-Sep-24 10:33N 01°15' E 103°46'2 2.1
2014-Sep-24 09:34N 01°15' E 103°48'0 0.1
2014-Sep-24 08:34N 01°15' E 103°48'0 0.0
2014-Sep-24 07:33N 01°15' E 103°48'0 0.4
2014-Sep-24 06:34N 01°15' E 103°48'6 5.7
2014-Sep-24 05:33N 01°14' E 103°43'8 8.4
2014-Sep-24 04:34N 01°12' E 103°34'5 5.1
2014-Sep-24 03:33N 01°11' E 103°29'  
Track history (hours):
 
Tides and Currents Weather Stations Pressure Air Temp Water Temp Dewpoint Dewpoint Depression Visibility Wind Speed Wind Dir Waves Ship Positions

Kota Waris

Last reported at 2014-Sep-25 20:25 UTC. Time now 2014-Sep-30 20:09 UTC.
Position N 01°16' E 103°23'.

Length 185 m; draft 8.1 m.

Type: Ship (hazmat cat A). MMSI: 564482000.

Date/timePositionNaut miles runAvg speedWind from/ knotsBaromVisibWave heightAir tempDewpointWater temp
2014-Sep-25 20:25N 01°16' E 103°23'1415.7
2014-Sep-25 19:33N 01°12' E 103°36'1010.4
2014-Sep-25 18:34N 01°17' E 103°45'1 1.0
2014-Sep-25 17:34N 01°17' E 103°46'0 0.0
2014-Sep-25 16:28N 01°17' E 103°46'0 0.0
2014-Sep-25 15:31N 01°17' E 103°46'0 0.0
2014-Sep-25 14:32N 01°17' E 103°46'0 0.0
2014-Sep-25 13:32N 01°17' E 103°46'0 0.0
2014-Sep-25 12:31N 01°17' E 103°46'0 0.0
2014-Sep-25 11:32N 01°17' E 103°46'0 0.0
2014-Sep-25 10:31N 01°17' E 103°46'0 0.0
2014-Sep-25 09:31N 01°17' E 103°46'0 0.0
2014-Sep-25 08:32N 01°17' E 103°46'0 0.0
2014-Sep-25 07:32N 01°17' E 103°46'0 0.0
2014-Sep-25 06:29N 01°17' E 103°46'0 0.0
2014-Sep-25 05:31N 01°17' E 103°46'0 0.0
2014-Sep-25 04:31N 01°17' E 103°46'0 0.1
2014-Sep-25 03:32N 01°17' E 103°46'0 0.1
2014-Sep-25 02:33N 01°17' E 103°46'0 0.0
2014-Sep-25 01:31N 01°17' E 103°46'0 0.0
2014-Sep-25 00:32N 01°17' E 103°46'0 0.0
2014-Sep-24 23:31N 01°17' E 103°46'0 0.1
2014-Sep-24 22:32N 01°17' E 103°46'0 0.1
2014-Sep-24 21:31N 01°17' E 103°46'0 0.0
2014-Sep-24 20:31N 01°17' E 103°46'0 0.0
2014-Sep-24 19:31N 01°17' E 103°46'0 0.0
2014-Sep-24 18:32N 01°17' E 103°46'0 0.0
2014-Sep-24 17:32N 01°17' E 103°46'0 0.0
2014-Sep-24 16:32N 01°17' E 103°46'0 0.0
2014-Sep-24 15:31N 01°17' E 103°46'0 0.0
2014-Sep-24 14:32N 01°17' E 103°46'0 0.0
2014-Sep-24 13:32N 01°17' E 103°46'0 0.0
2014-Sep-24 12:31N 01°17' E 103°46'0 0.0
2014-Sep-24 11:33N 01°17' E 103°46'2 1.5
2014-Sep-24 10:33N 01°15' E 103°46'2 2.1
2014-Sep-24 09:34N 01°15' E 103°48'0 0.1
2014-Sep-24 08:34N 01°15' E 103°48'0 0.0
2014-Sep-24 07:33N 01°15' E 103°48'0 0.4
2014-Sep-24 06:34N 01°15' E 103°48'6 5.7
2014-Sep-24 05:33N 01°14' E 103°43'8 8.4
2014-Sep-24 04:34N 01°12' E 103°34'5 5.1
2014-Sep-24 03:33N 01°11' E 103°29'  

Dump ship's entire track history